Time;durP1;ratioP1;P1;durP2;ratioP2;P2;SDS_P1;SDS_P2;PMS_P1;PMS_P2;Temp;Humidity;BMP_temperature;BMP_pressure;BME280_temperature;BME280_humidity;BME280_pressure;Samples;Min_cycle;Max_cycle;Signal;HPM_P1;HPM_P2
2024/04/19 00:01:51;;;;;;;3.70;3.40;;;;;;;;;;5450546;26;20324;-73
2024/04/19 00:04:20;;;;;;;3.22;3.03;;;;;;;;;;5450134;26;20238;-73
2024/04/19 00:06:46;;;;;;;3.30;3.10;;;;;;;;;;5450120;26;20276;-73
2024/04/19 00:09:15;;;;;;;3.10;2.88;;;;;;;;;;5450671;26;20739;-73
2024/04/19 00:11:41;;;;;;;8.68;2.97;;;;;;;;;;5450469;26;20763;-73
2024/04/19 00:14:10;;;;;;;3.45;3.15;;;;;;;;;;5450736;26;20338;-73
2024/04/19 00:16:38;;;;;;;2.85;2.60;;;;;;;;;;5451181;26;20323;-73
2024/04/19 00:19:07;;;;;;;3.42;3.13;;;;;;;;;;5450983;26;21126;-73
2024/04/19 00:21:33;;;;;;;4.10;3.80;;;;;;;;;;5450886;26;20226;-73
2024/04/19 00:24:02;;;;;;;3.47;3.28;;;;;;;;;;5450816;26;20260;-73
2024/04/19 00:26:28;;;;;;;3.08;2.88;;;;;;;;;;5450736;26;20265;-73
2024/04/19 00:28:57;;;;;;;2.95;2.75;;;;;;;;;;5450741;26;20242;-73
2024/04/19 00:31:23;;;;;;;2.70;2.60;;;;;;;;;;5439007;26;20270;-72
2024/04/19 00:33:55;;;;;;;3.08;2.88;;;;;;;;;;5413151;26;20271;-73
2024/04/19 00:36:21;;;;;;;3.25;2.95;;;;;;;;;;5414842;26;20579;-73
2024/04/19 00:38:52;;;;;;;3.78;3.47;;;;;;;;;;5414818;26;20255;-73
2024/04/19 00:41:19;;;;;;;3.25;3.03;;;;;;;;;;5415055;26;20265;-73
2024/04/19 00:43:47;;;;;;;3.22;2.83;;;;;;;;;;5414241;26;20231;-73
2024/04/19 00:46:14;;;;;;;3.30;3.00;;;;;;;;;;5414647;26;20226;-73
2024/04/19 00:48:43;;;;;;;3.53;3.22;;;;;;;;;;5414242;26;20295;-73
2024/04/19 00:51:12;;;;;;;3.95;3.65;;;;;;;;;;5414672;26;20269;-73
2024/04/19 00:53:41;;;;;;;3.95;2.72;;;;;;;;;;5414239;26;20316;-73
2024/04/19 00:56:07;;;;;;;3.50;3.20;;;;;;;;;;5414618;26;20231;-73
2024/04/19 00:58:36;;;;;;;2.70;2.50;;;;;;;;;;5414474;26;20246;-73
2024/04/19 01:01:03;;;;;;;3.17;2.97;;;;;;;;;;5414753;26;21065;-73
2024/04/19 01:03:32;;;;;;;5.10;3.05;;;;;;;;;;5414383;26;20673;-73
2024/04/19 01:05:58;;;;;;;3.72;3.22;;;;;;;;;;5414481;26;20568;-73
2024/04/19 01:08:30;;;;;;;3.47;3.17;;;;;;;;;;5414060;26;20288;-73
2024/04/19 01:10:57;;;;;;;2.95;2.75;;;;;;;;;;5414530;26;20223;-73
2024/04/19 01:13:26;;;;;;;2.70;2.50;;;;;;;;;;5413911;26;20231;-73
2024/04/19 01:15:52;;;;;;;2.85;2.65;;;;;;;;;;5414302;26;20223;-73
2024/04/19 01:18:21;;;;;;;3.70;3.40;;;;;;;;;;5414397;26;20344;-73
2024/04/19 01:20:47;;;;;;;5.07;3.50;;;;;;;;;;5414228;26;20227;-73
2024/04/19 01:23:18;;;;;;;4.57;3.40;;;;;;;;;;5413789;26;20231;-73
2024/04/19 01:25:47;;;;;;;3.80;3.47;;;;;;;;;;5414188;26;20657;-73
2024/04/19 01:28:19;;;;;;;3.00;2.70;;;;;;;;;;5414028;26;20274;-73
2024/04/19 01:30:45;;;;;;;3.28;3.08;;;;;;;;;;5414431;26;20231;-73
2024/04/19 01:33:14;;;;;;;3.28;2.97;;;;;;;;;;5413812;26;20242;-73
2024/04/19 01:35:41;;;;;;;3.72;3.42;;;;;;;;;;5414047;26;20713;-73
2024/04/19 01:38:09;;;;;;;3.55;2.90;;;;;;;;;;5414032;26;20235;-73
2024/04/19 01:40:36;;;;;;;2.75;2.65;;;;;;;;;;5413962;26;20223;-73
2024/04/19 01:43:04;;;;;;;3.35;2.97;;;;;;;;;;5413581;26;20282;-73
2024/04/19 01:45:33;;;;;;;3.67;3.45;;;;;;;;;;5413903;26;20791;-73
2024/04/19 01:48:02;;;;;;;4.00;3.60;;;;;;;;;;5413639;26;20286;-73
2024/04/19 01:50:29;;;;;;;3.17;2.97;;;;;;;;;;5414283;26;20223;-73
2024/04/19 01:52:57;;;;;;;3.75;3.45;;;;;;;;;;5413381;26;20269;-73
2024/04/19 01:55:24;;;;;;;3.33;3.13;;;;;;;;;;5413843;26;20238;-73
2024/04/19 01:57:52;;;;;;;3.35;3.05;;;;;;;;;;5413874;26;20359;-73
2024/04/19 02:00:19;;;;;;;5.13;3.00;;;;;;;;;;5413025;26;20278;-73
2024/04/19 02:02:50;;;;;;;3.17;3.03;;;;;;;;;;5412399;26;20238;-73
2024/04/19 02:05:16;;;;;;;3.05;2.85;;;;;;;;;;5413529;26;20580;-73
2024/04/19 02:07:45;;;;;;;3.28;3.08;;;;;;;;;;5413390;26;20360;-73
2024/04/19 02:10:12;;;;;;;2.85;2.65;;;;;;;;;;5413257;26;20227;-73
2024/04/19 02:12:40;;;;;;;3.58;3.28;;;;;;;;;;5413066;26;20227;-73
2024/04/19 02:15:07;;;;;;;3.00;2.80;;;;;;;;;;5413449;26;20273;-73
2024/04/19 02:17:36;;;;;;;3.53;3.33;;;;;;;;;;5413004;26;20293;-73
2024/04/19 02:20:05;;;;;;;5.30;3.05;;;;;;;;;;5413542;26;20261;-73
2024/04/19 02:22:34;;;;;;;2.65;2.50;;;;;;;;;;5413594;26;20348;-73
2024/04/19 02:25:00;;;;;;;2.85;2.65;;;;;;;;;;5413430;26;20270;-73
2024/04/19 02:32:59;;;;;;;3.20;2.90;;;;;;;;;;5415240;26;20269;-73
2024/04/19 02:35:30;;;;;;;2.30;2.20;;;;;;;;;;5413078;26;20231;-73
2024/04/19 02:37:59;;;;;;;8.13;3.33;;;;;;;;;;5413027;26;20765;-73
2024/04/19 02:40:28;;;;;;;3.40;3.17;;;;;;;;;;5413006;26;20227;-73
2024/04/19 02:42:56;;;;;;;3.08;2.88;;;;;;;;;;5412351;26;20232;-73
2024/04/19 02:45:25;;;;;;;3.10;2.30;;;;;;;;;;5412945;26;20273;-73
2024/04/19 02:47:54;;;;;;;2.78;2.58;;;;;;;;;;5412775;26;20715;-73
2024/04/19 02:50:23;;;;;;;4.55;3.03;;;;;;;;;;5412983;26;20258;-73
2024/04/19 02:52:54;;;;;;;4.18;3.88;;;;;;;;;;5412306;26;20232;-73
2024/04/19 02:55:23;;;;;;;3.28;2.97;;;;;;;;;;5412676;26;20713;-73
2024/04/19 02:57:52;;;;;;;3.17;2.97;;;;;;;;;;5412832;26;20579;-73
2024/04/19 03:00:21;;;;;;;3.58;2.70;;;;;;;;;;5412713;26;20773;-73
2024/04/19 03:02:49;;;;;;;4.25;4.00;;;;;;;;;;5412050;26;20231;-73
2024/04/19 03:05:18;;;;;;;3.13;2.90;;;;;;;;;;5412509;26;20231;-73
2024/04/19 03:07:47;;;;;;;3.15;2.95;;;;;;;;;;5410941;26;20288;-73
2024/04/19 03:10:19;;;;;;;3.90;2.55;;;;;;;;;;5412469;26;20273;-73
2024/04/19 03:12:47;;;;;;;3.28;3.08;;;;;;;;;;5413642;26;20235;-73
2024/04/19 03:15:16;;;;;;;2.85;2.60;;;;;;;;;;5416002;26;20779;-73
2024/04/19 03:17:45;;;;;;;2.90;2.65;;;;;;;;;;5415743;26;20795;-73
2024/04/19 03:20:14;;;;;;;3.05;2.80;;;;;;;;;;5416038;26;21053;-73
2024/04/19 03:22:43;;;;;;;4.30;3.78;;;;;;;;;;5415485;26;20223;-73
2024/04/19 03:25:12;;;;;;;5.22;4.82;;;;;;;;;;5415870;26;20269;-73
2024/04/19 03:27:44;;;;;;;7.43;4.45;;;;;;;;;;5415506;26;20246;-73
2024/04/19 03:30:13;;;;;;;3.85;3.47;;;;;;;;;;5415823;26;20231;-73
2024/04/19 03:32:42;;;;;;;3.40;3.20;;;;;;;;;;5415352;26;20733;-73
2024/04/19 03:35:10;;;;;;;4.10;3.55;;;;;;;;;;5415900;26;20278;-73
2024/04/19 03:37:39;;;;;;;4.60;3.92;;;;;;;;;;5415595;26;20245;-73
2024/04/19 03:40:08;;;;;;;4.10;3.80;;;;;;;;;;5415692;26;20269;-73
2024/04/19 03:42:45;;;;;;;4.57;4.22;;;;;;;;;;5415490;26;20607;-73
2024/04/19 03:48:01;;;;;;;3.67;3.38;;;;;;;;;;5418177;26;20277;-73
2024/04/19 03:50:30;;;;;;;3.70;3.45;;;;;;;;;;5415766;26;20228;-73
2024/04/19 03:52:59;;;;;;;4.40;3.25;;;;;;;;;;5415283;26;20231;-73
2024/04/19 03:55:28;;;;;;;4.00;3.80;;;;;;;;;;5415709;26;20733;-73
2024/04/19 03:57:56;;;;;;;4.60;4.20;;;;;;;;;;5415877;26;20290;-74
2024/04/19 04:00:28;;;;;;;4.30;3.90;;;;;;;;;;5415736;26;20270;-74
2024/04/19 04:02:57;;;;;;;7.88;4.30;;;;;;;;;;5415525;26;20291;-73
2024/04/19 04:05:26;;;;;;;5.03;3.97;;;;;;;;;;5415587;26;20227;-73
2024/04/19 04:07:54;;;;;;;4.43;4.10;;;;;;;;;;5415604;26;20279;-73
2024/04/19 04:10:23;;;;;;;4.68;4.25;;;;;;;;;;5415396;26;20228;-73
2024/04/19 04:12:52;;;;;;;4.53;4.15;;;;;;;;;;5415149;26;20227;-74
2024/04/19 04:15:21;;;;;;;4.50;4.10;;;;;;;;;;5415559;26;20227;-73
2024/04/19 04:17:52;;;;;;;4.93;4.53;;;;;;;;;;5415154;26;20332;-73
2024/04/19 04:20:21;;;;;;;4.85;4.45;;;;;;;;;;5415386;26;20304;-73
2024/04/19 04:22:50;;;;;;;4.80;4.40;;;;;;;;;;5414907;26;20274;-74
2024/04/19 04:25:19;;;;;;;6.47;4.93;;;;;;;;;;5414094;26;20231;-74
2024/04/19 04:27:48;;;;;;;5.15;4.75;;;;;;;;;;5414887;26;20244;-74
2024/04/19 04:30:17;;;;;;;5.53;5.03;;;;;;;;;;5414692;26;20750;-74
2024/04/19 04:32:46;;;;;;;8.30;6.55;;;;;;;;;;5414641;26;20232;-74
2024/04/19 04:35:18;;;;;;;4.82;4.40;;;;;;;;;;5415022;26;20226;-74
2024/04/19 04:37:46;;;;;;;4.50;4.20;;;;;;;;;;5415279;26;20299;-74
2024/04/19 04:40:16;;;;;;;4.55;4.15;;;;;;;;;;5415062;26;20243;-74
2024/04/19 04:42:45;;;;;;;4.88;4.35;;;;;;;;;;5414633;26;20232;-74
2024/04/19 04:45:14;;;;;;;4.80;4.40;;;;;;;;;;5414804;26;20270;-74
2024/04/19 04:47:43;;;;;;;4.28;3.97;;;;;;;;;;5414819;26;20239;-74
2024/04/19 04:50:11;;;;;;;4.72;4.32;;;;;;;;;;5415066;26;20226;-74
2024/04/19 04:52:43;;;;;;;4.78;4.43;;;;;;;;;;5414559;26;20776;-74
2024/04/19 04:55:13;;;;;;;4.70;4.28;;;;;;;;;;5415344;26;20722;-74
2024/04/19 04:57:42;;;;;;;7.00;6.30;;;;;;;;;;5414690;26;20373;-74
2024/04/19 05:00:12;;;;;;;6.45;5.72;;;;;;;;;;5414632;26;20752;-73
2024/04/19 05:02:40;;;;;;;6.90;5.50;;;;;;;;;;5414145;26;20275;-74
2024/04/19 05:05:09;;;;;;;6.10;5.43;;;;;;;;;;5414500;26;20235;-74
2024/04/19 05:07:38;;;;;;;6.10;5.60;;;;;;;;;;5414250;26;20654;-74
2024/04/19 05:10:10;;;;;;;8.05;6.28;;;;;;;;;;5414729;26;20763;-73
2024/04/19 05:12:39;;;;;;;9.02;7.50;;;;;;;;;;5414145;26;20855;-73
2024/04/19 05:15:08;;;;;;;7.20;6.50;;;;;;;;;;5414671;26;20232;-74
2024/04/19 05:17:37;;;;;;;6.65;6.15;;;;;;;;;;5414303;26;20297;-74
2024/04/19 05:20:06;;;;;;;6.93;6.30;;;;;;;;;;5414430;26;20290;-74
2024/04/19 05:22:37;;;;;;;7.10;6.47;;;;;;;;;;5414013;26;20274;-73
2024/04/19 05:25:06;;;;;;;7.15;6.63;;;;;;;;;;5414269;26;20233;-74
2024/04/19 05:27:38;;;;;;;7.47;5.93;;;;;;;;;;5414222;26;20281;-74
2024/04/19 05:30:07;;;;;;;7.35;6.43;;;;;;;;;;5414444;26;20320;-73
2024/04/19 05:32:36;;;;;;;9.45;6.30;;;;;;;;;;5413736;26;20236;-73
2024/04/19 05:35:05;;;;;;;8.00;7.25;;;;;;;;;;5414102;26;21010;-73
2024/04/19 05:37:34;;;;;;;9.35;7.68;;;;;;;;;;5414142;26;20243;-73
2024/04/19 05:40:03;;;;;;;8.57;7.75;;;;;;;;;;5423599;26;20355;-73
2024/04/19 05:42:32;;;;;;;8.48;7.70;;;;;;;;;;5449152;26;20243;-73
2024/04/19 05:45:04;;;;;;;8.32;7.50;;;;;;;;;;5449563;26;20269;-73
2024/04/19 05:47:33;;;;;;;7.78;7.18;;;;;;;;;;5449432;26;20276;-73
2024/04/19 05:50:02;;;;;;;6.95;6.35;;;;;;;;;;5449378;26;20264;-73
2024/04/19 05:52:31;;;;;;;8.00;7.30;;;;;;;;;;5448243;26;20243;-74
2024/04/19 05:55:00;;;;;;;10.55;7.75;;;;;;;;;;5448602;26;20578;-73
2024/04/19 05:57:29;;;;;;;7.63;6.85;;;;;;;;;;5448899;26;20293;-73
2024/04/19 05:59:58;;;;;;;6.93;6.32;;;;;;;;;;5448211;26;20865;-73
2024/04/19 06:02:29;;;;;;;7.40;6.80;;;;;;;;;;5448491;26;20608;-73
2024/04/19 06:04:58;;;;;;;6.85;6.35;;;;;;;;;;5448564;26;20294;-73
2024/04/19 06:07:27;;;;;;;7.88;7.28;;;;;;;;;;5448421;26;20353;-73
2024/04/19 06:09:55;;;;;;;6.57;6.15;;;;;;;;;;5448237;26;20234;-73
2024/04/19 06:12:24;;;;;;;7.85;7.10;;;;;;;;;;5443933;26;20238;-74
2024/04/19 06:14:53;;;;;;;6.20;5.70;;;;;;;;;;5449380;26;20614;-73
2024/04/19 06:17:22;;;;;;;7.25;6.60;;;;;;;;;;5449312;26;20234;-73
2024/04/19 06:19:53;;;;;;;6.78;6.32;;;;;;;;;;5448443;26;20284;-73
2024/04/19 06:22:22;;;;;;;7.55;6.85;;;;;;;;;;5447794;26;20241;-74
2024/04/19 06:24:51;;;;;;;7.30;6.65;;;;;;;;;;5448014;26;20646;-74
2024/04/19 06:27:19;;;;;;;9.75;8.82;;;;;;;;;;5447705;26;20631;-74
2024/04/19 06:29:48;;;;;;;8.20;7.60;;;;;;;;;;5443367;26;20245;-73
2024/04/19 06:32:17;;;;;;;8.27;7.47;;;;;;;;;;5447371;26;20284;-74
2024/04/19 06:34:46;;;;;;;8.52;7.57;;;;;;;;;;5443062;26;20238;-74
2024/04/19 06:37:17;;;;;;;10.73;9.57;;;;;;;;;;5446706;26;20247;-73
2024/04/19 06:39:46;;;;;;;6.90;6.35;;;;;;;;;;5448082;26;20278;-73
2024/04/19 06:42:15;;;;;;;11.55;8.45;;;;;;;;;;5448709;26;20273;-74
2024/04/19 06:44:43;;;;;;;7.05;6.55;;;;;;;;;;5448458;26;20289;-74
2024/04/19 06:47:12;;;;;;;7.40;6.65;;;;;;;;;;5449286;26;20243;-73
2024/04/19 06:49:41;;;;;;;7.22;6.63;;;;;;;;;;5452245;26;20272;-73
2024/04/19 06:52:10;;;;;;;8.02;7.25;;;;;;;;;;5452275;26;20230;-74
2024/04/19 06:54:41;;;;;;;7.45;6.85;;;;;;;;;;5452201;26;20603;-73
2024/04/19 06:57:10;;;;;;;7.57;6.88;;;;;;;;;;5452146;26;20242;-73
2024/04/19 06:59:39;;;;;;;7.25;6.75;;;;;;;;;;5452198;26;20273;-73
2024/04/19 07:02:08;;;;;;;6.90;6.30;;;;;;;;;;5452064;26;20272;-73
2024/04/19 07:04:37;;;;;;;6.32;5.72;;;;;;;;;;5451724;26;20230;-73
2024/04/19 07:07:06;;;;;;;6.90;6.28;;;;;;;;;;5452079;26;20294;-73
2024/04/19 07:09:35;;;;;;;7.28;6.63;;;;;;;;;;5451965;26;20284;-74
2024/04/19 07:12:07;;;;;;;7.47;6.88;;;;;;;;;;5451988;26;20268;-73
2024/04/19 07:14:36;;;;;;;6.32;5.82;;;;;;;;;;5451807;26;20268;-73
2024/04/19 07:17:04;;;;;;;8.15;7.35;;;;;;;;;;5452060;26;21475;-73
2024/04/19 07:19:33;;;;;;;7.15;6.45;;;;;;;;;;5452171;26;20230;-73
2024/04/19 07:22:02;;;;;;;6.32;5.53;;;;;;;;;;5452081;26;20230;-73
2024/04/19 07:24:31;;;;;;;5.80;5.32;;;;;;;;;;5451955;26;20270;-73
2024/04/19 07:27:00;;;;;;;6.32;5.63;;;;;;;;;;5451644;26;20273;-74
2024/04/19 07:29:31;;;;;;;7.40;6.80;;;;;;;;;;5451679;26;20902;-73
2024/04/19 07:32:00;;;;;;;7.32;6.63;;;;;;;;;;5451860;26;20264;-73
2024/04/19 07:34:29;;;;;;;6.53;5.93;;;;;;;;;;5451178;26;20269;-73
2024/04/19 07:36:58;;;;;;;6.55;6.05;;;;;;;;;;5451515;26;20293;-73
2024/04/19 07:39:27;;;;;;;6.30;5.80;;;;;;;;;;5451538;26;20230;-73
2024/04/19 07:41:56;;;;;;;6.80;6.10;;;;;;;;;;5451171;26;20234;-73
2024/04/19 07:44:24;;;;;;;7.20;6.50;;;;;;;;;;5451414;26;20226;-73
2024/04/19 07:46:56;;;;;;;6.95;6.20;;;;;;;;;;5451449;26;20236;-73
2024/04/19 07:49:25;;;;;;;7.72;6.93;;;;;;;;;;5451509;26;20576;-73
2024/04/19 07:51:53;;;;;;;6.82;6.20;;;;;;;;;;5451541;26;20277;-73
2024/04/19 07:54:22;;;;;;;9.25;6.25;;;;;;;;;;5451036;26;20230;-74
2024/04/19 07:56:51;;;;;;;5.72;5.03;;;;;;;;;;5451212;26;20232;-74
2024/04/19 07:59:22;;;;;;;6.65;6.13;;;;;;;;;;5449789;26;20614;-75
2024/04/19 08:01:51;;;;;;;6.05;5.55;;;;;;;;;;5451151;26;20276;-73
2024/04/19 08:04:22;;;;;;;5.90;5.38;;;;;;;;;;5450987;26;20233;-73
2024/04/19 08:06:51;;;;;;;6.40;5.88;;;;;;;;;;5451284;26;20576;-73
2024/04/19 08:09:20;;;;;;;6.43;5.93;;;;;;;;;;5451262;26;20230;-73
2024/04/19 08:11:48;;;;;;;6.32;5.82;;;;;;;;;;5451171;26;20272;-74
2024/04/19 08:14:17;;;;;;;5.78;5.15;;;;;;;;;;5451176;26;20233;-73
2024/04/19 08:16:46;;;;;;;5.93;5.32;;;;;;;;;;5451112;26;20266;-73
2024/04/19 08:19:15;;;;;;;6.72;6.18;;;;;;;;;;5451047;26;20230;-73
2024/04/19 08:21:46;;;;;;;5.10;4.70;;;;;;;;;;5450981;26;20230;-73
2024/04/19 08:24:15;;;;;;;5.32;4.93;;;;;;;;;;5450744;26;20257;-74
2024/04/19 08:26:44;;;;;;;4.72;4.43;;;;;;;;;;5450501;26;20236;-74
2024/04/19 08:29:12;;;;;;;5.72;4.97;;;;;;;;;;5449702;26;20244;-74
2024/04/19 08:31:42;;;;;;;5.95;4.38;;;;;;;;;;5449884;26;20336;-73
2024/04/19 08:34:12;;;;;;;4.78;4.38;;;;;;;;;;5441216;26;21432;-73
2024/04/19 08:36:40;;;;;;;3.70;3.38;;;;;;;;;;5437046;26;20323;-73
2024/04/19 08:39:12;;;;;;;3.75;3.45;;;;;;;;;;5448988;26;20289;-74
2024/04/19 08:41:41;;;;;;;4.00;3.67;;;;;;;;;;5449533;26;20301;-75
2024/04/19 08:44:10;;;;;;;5.95;3.92;;;;;;;;;;5449684;26;20606;-74
2024/04/19 08:46:39;;;;;;;4.35;3.83;;;;;;;;;;5449990;26;20560;-75
2024/04/19 08:49:11;;;;;;;2.97;2.78;;;;;;;;;;5449965;26;20614;-73
2024/04/19 08:51:40;;;;;;;3.20;2.97;;;;;;;;;;5450128;26;20277;-74
2024/04/19 08:54:09;;;;;;;4.55;4.15;;;;;;;;;;5449847;26;20234;-73
2024/04/19 08:56:41;;;;;;;3.17;2.90;;;;;;;;;;5450102;26;20238;-73
2024/04/19 08:59:10;;;;;;;3.00;2.70;;;;;;;;;;5449982;26;20242;-74
2024/04/19 09:01:38;;;;;;;3.38;3.08;;;;;;;;;;5449688;26;20611;-74
2024/04/19 09:04:07;;;;;;;6.10;2.78;;;;;;;;;;5448790;26;20274;-75
2024/04/19 09:06:36;;;;;;;2.47;2.28;;;;;;;;;;5444811;26;20238;-73
2024/04/19 09:09:05;;;;;;;3.42;2.72;;;;;;;;;;5449275;26;20242;-72
2024/04/19 09:11:34;;;;;;;3.72;2.78;;;;;;;;;;5448988;26;20231;-73
2024/04/19 09:14:06;;;;;;;2.75;2.55;;;;;;;;;;5449546;26;20277;-73
2024/04/19 09:16:34;;;;;;;3.40;3.10;;;;;;;;;;5449890;26;20595;-73
2024/04/19 09:19:03;;;;;;;2.88;2.45;;;;;;;;;;5449700;26;20246;-73
2024/04/19 09:21:32;;;;;;;2.03;1.80;;;;;;;;;;5449463;26;20233;-74
2024/04/19 09:24:01;;;;;;;2.72;2.28;;;;;;;;;;5448888;26;21106;-73
2024/04/19 09:26:30;;;;;;;2.30;2.20;;;;;;;;;;5449404;26;20620;-74
2024/04/19 09:28:58;;;;;;;2.53;2.33;;;;;;;;;;5449322;26;20620;-73
2024/04/19 09:31:30;;;;;;;3.10;2.28;;;;;;;;;;5449389;26;20567;-72
2024/04/19 09:33:59;;;;;;;2.40;2.30;;;;;;;;;;5449404;26;20276;-73
2024/04/19 09:36:27;;;;;;;2.08;1.98;;;;;;;;;;5449161;26;20235;-72
2024/04/19 09:38:58;;;;;;;2.42;2.17;;;;;;;;;;5449087;26;20334;-74
2024/04/19 09:41:28;;;;;;;2.53;2.33;;;;;;;;;;5448517;26;20282;-74
2024/04/19 09:43:58;;;;;;;1.95;1.85;;;;;;;;;;5443587;26;20381;-74
2024/04/19 09:46:28;;;;;;;2.40;2.20;;;;;;;;;;5448030;26;20279;-74
2024/04/19 09:49:01;;;;;;;2.90;2.70;;;;;;;;;;5444464;26;20682;-73
2024/04/19 09:51:33;;;;;;;2.10;2.00;;;;;;;;;;5448435;26;20245;-73
2024/04/19 09:54:05;;;;;;;2.70;2.50;;;;;;;;;;5448310;26;20238;-72
2024/04/19 09:56:39;;;;;;;3.90;3.08;;;;;;;;;;5449191;26;20238;-72
2024/04/19 09:59:09;;;;;;;3.92;3.65;;;;;;;;;;5449415;26;20292;-72
2024/04/19 10:01:39;;;;;;;1.70;1.60;;;;;;;;;;5448724;26;20238;-72
2024/04/19 10:04:11;;;;;;;2.53;2.33;;;;;;;;;;5448354;26;20234;-73
2024/04/19 10:06:40;;;;;;;2.08;1.95;;;;;;;;;;5443474;26;20368;-72
2024/04/19 10:09:13;;;;;;;2.67;2.47;;;;;;;;;;5448291;26;20241;-72
2024/04/19 10:11:42;;;;;;;2.05;1.95;;;;;;;;;;5448943;26;20282;-73
2024/04/19 10:14:11;;;;;;;2.20;2.10;;;;;;;;;;5448748;26;20276;-72
2024/04/19 10:16:40;;;;;;;2.03;1.92;;;;;;;;;;5448432;26;20276;-72
2024/04/19 10:19:12;;;;;;;2.50;2.17;;;;;;;;;;5447971;26;20241;-72
2024/04/19 10:21:41;;;;;;;3.00;2.80;;;;;;;;;;5438851;26;20242;-72
2024/04/19 10:24:13;;;;;;;2.60;2.40;;;;;;;;;;5433790;26;20239;-71
2024/04/19 10:26:40;;;;;;;2.75;2.30;;;;;;;;;;5441119;26;20341;-71
2024/04/19 10:29:09;;;;;;;2.72;2.25;;;;;;;;;;5437624;26;20257;-71
2024/04/19 10:31:37;;;;;;;3.10;2.20;;;;;;;;;;5431121;26;20611;-70
2024/04/19 10:34:09;;;;;;;1.80;1.70;;;;;;;;;;5436592;26;20618;-71
2024/04/19 10:36:42;;;;;;;1.67;1.58;;;;;;;;;;5430855;26;20280;-70
2024/04/19 10:39:11;;;;;;;1.73;1.63;;;;;;;;;;5451709;26;20242;-70
2024/04/19 10:41:39;;;;;;;1.73;1.63;;;;;;;;;;5452227;26;20276;-71
2024/04/19 10:44:14;;;;;;;2.17;2.08;;;;;;;;;;5438996;26;20284;-71
2024/04/19 10:46:44;;;;;;;2.53;1.98;;;;;;;;;;5437075;26;20230;-70
2024/04/19 10:49:14;;;;;;;1.55;1.45;;;;;;;;;;5436365;26;20247;-70
2024/04/19 10:51:46;;;;;;;2.42;2.25;;;;;;;;;;5442152;26;20312;-70
2024/04/19 10:54:14;;;;;;;2.75;2.28;;;;;;;;;;5446626;26;20284;-71
2024/04/19 10:56:43;;;;;;;2.30;2.10;;;;;;;;;;5451620;26;20268;-70
2024/04/19 10:59:12;;;;;;;2.67;2.22;;;;;;;;;;5440519;26;20274;-70
2024/04/19 11:01:42;;;;;;;2.78;2.58;;;;;;;;;;5446640;26;20238;-70
2024/04/19 11:04:12;;;;;;;2.58;2.10;;;;;;;;;;5450260;26;20285;-70
2024/04/19 11:06:40;;;;;;;3.20;2.40;;;;;;;;;;5446677;26;20733;-70
2024/04/19 11:09:12;;;;;;;1.73;1.63;;;;;;;;;;5450796;26;20779;-70
2024/04/19 11:11:42;;;;;;;2.78;2.58;;;;;;;;;;5451430;26;20222;-70
2024/04/19 11:14:11;;;;;;;5.50;3.17;;;;;;;;;;5450991;26;20230;-70
2024/04/19 11:16:40;;;;;;;3.78;2.30;;;;;;;;;;5451212;26;20238;-70
2024/04/19 11:19:09;;;;;;;2.53;2.00;;;;;;;;;;5450501;26;20595;-70
2024/04/19 11:21:38;;;;;;;1.63;1.52;;;;;;;;;;5449589;26;20278;-70
2024/04/19 11:24:07;;;;;;;2.78;2.67;;;;;;;;;;5449825;26;20237;-70
2024/04/19 11:26:39;;;;;;;6.10;5.15;;;;;;;;;;5450512;26;20238;-70
2024/04/19 11:29:07;;;;;;;3.70;3.15;;;;;;;;;;5449917;26;20595;-70
2024/04/19 11:31:36;;;;;;;2.47;2.35;;;;;;;;;;5450212;26;20234;-69
2024/04/19 11:34:05;;;;;;;2.30;2.20;;;;;;;;;;5449075;26;20245;-69
2024/04/19 11:36:36;;;;;;;1.88;1.77;;;;;;;;;;5449585;26;20238;-69
2024/04/19 11:39:05;;;;;;;2.75;2.50;;;;;;;;;;5449821;26;20748;-69
2024/04/19 11:41:34;;;;;;;2.88;2.67;;;;;;;;;;5449747;26;20238;-69
2024/04/19 11:44:05;;;;;;;2.72;2.63;;;;;;;;;;5449463;26;20242;-70
2024/04/19 11:46:34;;;;;;;1.45;1.40;;;;;;;;;;5446715;26;20276;-69
2024/04/19 11:49:05;;;;;;;1.05;1.05;;;;;;;;;;5449665;26;20247;-70
2024/04/19 11:51:34;;;;;;;1.50;1.40;;;;;;;;;;5445976;26;20242;-69
2024/04/19 11:54:02;;;;;;;2.03;1.83;;;;;;;;;;5449608;26;20238;-70
2024/04/19 11:56:31;;;;;;;1.15;1.00;;;;;;;;;;5446201;26;20238;-69
2024/04/19 11:59:00;;;;;;;3.17;2.97;;;;;;;;;;5451054;26;20288;-69
2024/04/19 12:01:31;;;;;;;1.27;1.15;;;;;;;;;;5450696;26;20284;-70
2024/04/19 12:04:00;;;;;;;1.08;1.00;;;;;;;;;;5450368;26;20233;-69
2024/04/19 12:06:29;;;;;;;1.10;1.00;;;;;;;;;;5450632;26;20226;-69
2024/04/19 12:08:55;;;;;;;1.20;1.10;;;;;;;;;;5450645;26;20284;-69
2024/04/19 12:11:24;;;;;;;1.30;1.27;;;;;;;;;;5450843;26;20229;-69
2024/04/19 12:13:53;;;;;;;1.05;1.05;;;;;;;;;;5437700;26;20248;-69
2024/04/19 12:16:22;;;;;;;1.27;1.23;;;;;;;;;;5441236;26;20272;-69
2024/04/19 12:18:53;;;;;;;1.10;1.00;;;;;;;;;;5440267;26;20297;-69
2024/04/19 12:21:22;;;;;;;1.35;1.25;;;;;;;;;;5443735;26;20246;-69
2024/04/19 12:23:51;;;;;;;1.33;1.33;;;;;;;;;;5443859;26;20250;-69
2024/04/19 12:26:20;;;;;;;1.08;1.05;;;;;;;;;;5439304;26;20238;-69
2024/04/19 12:28:49;;;;;;;2.20;1.20;;;;;;;;;;5440002;26;20254;-69
2024/04/19 12:31:18;;;;;;;1.38;1.27;;;;;;;;;;5443409;26;20242;-69
2024/04/19 12:33:46;;;;;;;2.85;1.67;;;;;;;;;;5439654;26;20747;-69
2024/04/19 12:36:18;;;;;;;1.70;1.45;;;;;;;;;;5442571;26;20239;-69
2024/04/19 12:38:48;;;;;;;2.00;1.70;;;;;;;;;;5440570;26;20250;-69
2024/04/19 12:41:17;;;;;;;18.25;5.05;;;;;;;;;;5444941;26;20235;-69
2024/04/19 12:43:47;;;;;;;1.40;1.40;;;;;;;;;;5436439;26;20287;-69
2024/04/19 12:46:16;;;;;;;0.95;0.95;;;;;;;;;;5427848;26;20290;-69
2024/04/19 12:48:47;;;;;;;1.80;0.90;;;;;;;;;;5421580;26;21142;-69
2024/04/19 12:51:23;;;;;;;2.75;2.00;;;;;;;;;;5432488;26;20235;-69
2024/04/19 12:53:52;;;;;;;0.80;0.80;;;;;;;;;;5448784;26;20608;-69
2024/04/19 12:56:21;;;;;;;0.82;0.82;;;;;;;;;;5438480;26;20615;-69
2024/04/19 12:58:49;;;;;;;1.05;0.90;;;;;;;;;;5448891;26;20238;-69
2024/04/19 13:01:18;;;;;;;2.15;1.40;;;;;;;;;;5434498;26;20272;-69
2024/04/19 13:03:47;;;;;;;0.70;0.70;;;;;;;;;;5436803;26;20235;-69
2024/04/19 13:06:18;;;;;;;0.63;0.63;;;;;;;;;;5447035;26;20725;-69
2024/04/19 13:08:47;;;;;;;0.82;0.82;;;;;;;;;;5432605;26;20238;-68
2024/04/19 13:11:16;;;;;;;0.80;0.80;;;;;;;;;;5434558;26;20237;-68
2024/04/19 13:13:52;;;;;;;1.52;0.60;;;;;;;;;;5446370;26;20334;-68
2024/04/19 13:16:21;;;;;;;0.95;0.95;;;;;;;;;;5428469;26;20850;-68
2024/04/19 13:18:50;;;;;;;1.52;1.20;;;;;;;;;;5438909;26;20783;-68
2024/04/19 13:21:22;;;;;;;1.13;1.02;;;;;;;;;;5440301;26;20235;-68
2024/04/19 13:23:51;;;;;;;1.35;1.20;;;;;;;;;;5443128;26;20230;-68
2024/04/19 13:26:22;;;;;;;0.95;0.90;;;;;;;;;;5446927;26;20720;-69
2024/04/19 13:28:52;;;;;;;1.15;1.15;;;;;;;;;;5437886;26;20237;-68
2024/04/19 13:31:20;;;;;;;1.15;1.15;;;;;;;;;;5421430;26;20237;-69
2024/04/19 13:33:49;;;;;;;1.23;1.23;;;;;;;;;;5437363;26;20266;-68
2024/04/19 13:36:18;;;;;;;2.15;1.35;;;;;;;;;;5430705;26;20235;-68
2024/04/19 13:38:50;;;;;;;2.05;1.25;;;;;;;;;;5421660;26;20367;-69
2024/04/19 13:41:19;;;;;;;0.63;0.63;;;;;;;;;;5434543;26;20230;-68
2024/04/19 13:43:47;;;;;;;1.00;1.00;;;;;;;;;;5440078;26;20235;-68
2024/04/19 13:46:16;;;;;;;2.20;1.40;;;;;;;;;;5439685;26;20885;-69
2024/04/19 13:48:45;;;;;;;2.85;2.63;;;;;;;;;;5432914;26;20240;-69
2024/04/19 13:51:14;;;;;;;0.80;0.80;;;;;;;;;;5434634;26;20269;-68
2024/04/19 13:53:43;;;;;;;1.90;1.35;;;;;;;;;;5419968;26;20237;-69
2024/04/19 13:56:14;;;;;;;1.52;1.42;;;;;;;;;;5442707;26;20324;-69
2024/04/19 13:58:43;;;;;;;1.50;1.40;;;;;;;;;;5427055;26;20293;-68
2024/04/19 14:01:15;;;;;;;2.00;1.90;;;;;;;;;;5427779;26;20283;-68
2024/04/19 14:03:43;;;;;;;2.95;2.47;;;;;;;;;;5441430;26;20229;-69
2024/04/19 14:06:12;;;;;;;2.70;2.40;;;;;;;;;;5419234;26;20231;-69
2024/04/19 14:08:41;;;;;;;1.50;1.40;;;;;;;;;;5435564;26;20284;-69
2024/04/19 14:11:10;;;;;;;2.65;2.10;;;;;;;;;;5433024;26;20236;-68
2024/04/19 14:13:42;;;;;;;2.00;1.90;;;;;;;;;;5420484;26;20742;-68
2024/04/19 14:16:11;;;;;;;1.98;1.83;;;;;;;;;;5442398;26;20231;-69
2024/04/19 14:18:40;;;;;;;1.77;1.67;;;;;;;;;;5425745;26;20626;-68
2024/04/19 14:21:09;;;;;;;1.88;1.77;;;;;;;;;;5428375;26;20291;-68
2024/04/19 14:23:39;;;;;;;2.50;2.30;;;;;;;;;;5439532;26;20269;-68
2024/04/19 14:26:08;;;;;;;2.83;2.53;;;;;;;;;;5418260;26;20274;-68
2024/04/19 14:28:36;;;;;;;2.67;1.98;;;;;;;;;;5435921;26;20478;-68
2024/04/19 14:31:08;;;;;;;2.70;2.50;;;;;;;;;;5431774;26;20276;-68
2024/04/19 14:33:37;;;;;;;4.15;3.35;;;;;;;;;;5420858;26;20276;-68
2024/04/19 14:36:06;;;;;;;1.48;1.48;;;;;;;;;;5441880;26;20274;-69
2024/04/19 14:38:35;;;;;;;2.60;2.38;;;;;;;;;;5423995;26;20235;-68
2024/04/19 14:41:04;;;;;;;2.85;2.65;;;;;;;;;;5429679;26;20235;-68
2024/04/19 14:43:37;;;;;;;2.70;2.50;;;;;;;;;;5438711;26;20278;-68
2024/04/19 14:46:10;;;;;;;2.28;2.17;;;;;;;;;;5418357;26;20227;-69
2024/04/19 14:48:39;;;;;;;2.53;2.33;;;;;;;;;;5435267;26;20286;-69
2024/04/19 14:51:08;;;;;;;2.42;2.22;;;;;;;;;;5431978;26;20236;-68
2024/04/19 14:53:37;;;;;;;2.00;1.88;;;;;;;;;;5420606;26;20240;-68
2024/04/19 14:56:07;;;;;;;1.80;1.70;;;;;;;;;;5441791;26;20235;-68
2024/04/19 14:58:36;;;;;;;3.10;2.80;;;;;;;;;;5423783;26;20231;-68
2024/04/19 15:01:05;;;;;;;1.55;1.45;;;;;;;;;;5428622;26;20237;-69
2024/04/19 15:03:37;;;;;;;2.38;2.00;;;;;;;;;;5437646;26;20273;-68